메인 페이지
METAR-TAF:

METAR-TAF

공항 :

Charles B. Wheeler Downtown Airport

캔자스시티, 미주리, 미국

위도: 39-07-15N, 경도: 094-35-49W, 고도: 231m

현재 날씨관측

예보는 1 시간 13분 전, 20:54시(UTC)에 발표되었습니다.
북북서9kt
온도 5°C
습도 75%
기압 1021 hPa
시정: 16.1km
고도 1700ft 상공 흐림

METAR: KMKC 252054Z 34009KT 10SM OVC017 05/01 A3014 RMK AO2 SLP211 T00500011 56008

시각: 17:07 (22:07 UTC)

예보

예보는 4 시간 16분 전, 17:51시(UTC)에 발표되었습니다.
예보 대상 시간: 25일 18시부터 26일 18시까지 (UTC)
북동9kt
시정: 8.0km
고도 1000ft 상공 구름 많음
고도 2000ft 상공 흐림
약한이슬비
26일 0600시부터 (UTC)
북북동12kt
시정: 8.0km
고도 1000ft 상공 흐림
약한소나기, 박무
26일 0900시부터 (UTC)
12kt
시정: 4.8km
고도 1000ft 상공 흐림
약한비, 눈, 박무
26일 1300시부터 (UTC)
10kt
시정: 3.2km
고도 600ft 상공 흐림
약한눈, 박무

TAF: KMKC 251751Z 2518/2618 04009KT 5SM -DZ BKN010 OVC020 FM260600 02012KT 5SM -SHRA BR OVC010 FM260900 01012KT 3SM -RASN BR OVC010 FM261300 36010KT 2SM -SN BR OVC006

4,000개 이상의 공항 관측 자료 및 예보 (METAR 및 TAF 보고).

지도상에서 검색 가능한 기상관측소가 노란 점과 빨간 점으로 표시되어 있습니다.

기상관측소 명을 보려면 표시 위로 마우스를 이동하세요.

날씨 관측과 예보를 보려면 클릭하세요.

지도 변경 : 확대하려면 엑스 표시가 있는 녹색 버튼, 축소하려면 빼기 표시가 있는 녹색 버튼, 다음 페이지의 지도를 보려면 녹색 화살표를 클릭하세요.


METAR-TAF: